createdAt,value
2019-04-26T00:01:56.579Z,100390.74
2019-04-26T00:04:25.669Z,100384.41
2019-04-26T00:06:54.816Z,100384.11
2019-04-26T00:09:37.254Z,100389.59
2019-04-26T00:12:23.868Z,100386.70
2019-04-26T00:15:11.034Z,100381.41
2019-04-26T00:17:48.464Z,100373.71
2019-04-26T00:20:17.275Z,100380.77
2019-04-26T00:22:47.405Z,100372.42
2019-04-26T00:25:18.627Z,100378.75
2019-04-26T00:27:48.835Z,100377.27
2019-04-26T00:30:19.901Z,100374.18
2019-04-26T00:32:48.690Z,100366.83
2019-04-26T00:35:17.797Z,100370.21
2019-04-26T00:37:46.536Z,100363.44
2019-04-26T00:40:18.434Z,100357.80
2019-04-26T00:42:48.940Z,100355.47
2019-04-26T00:45:18.813Z,100350.49
2019-04-26T00:47:49.103Z,100350.64
2019-04-26T00:50:17.897Z,100343.87
2019-04-26T00:52:47.106Z,100341.32
2019-04-26T00:55:17.651Z,100344.98
2019-04-26T00:57:46.888Z,100343.30
2019-04-26T01:00:18.111Z,100344.33
2019-04-26T01:02:48.610Z,100337.47
2019-04-26T01:05:18.980Z,100338.39
2019-04-26T01:07:49.293Z,100345.05
2019-04-26T01:10:18.095Z,100349.05
2019-04-26T01:12:46.847Z,100358.27
2019-04-26T01:15:19.864Z,100400.11
2019-04-26T01:17:47.676Z,100419.60
2019-04-26T01:20:19.061Z,100420.33
2019-04-26T01:22:50.810Z,100409.36
2019-04-26T01:25:35.179Z,100389.26
2019-04-26T01:28:08.725Z,100369.00
2019-04-26T01:30:38.856Z,100352.16
2019-04-26T01:33:09.141Z,100340.92
2019-04-26T01:35:38.423Z,100374.27
2019-04-26T01:38:10.097Z,100396.28
2019-04-26T01:40:41.356Z,100413.75
2019-04-26T01:43:18.106Z,100405.34
2019-04-26T01:45:51.339Z,100397.89
2019-04-26T01:48:43.762Z,100393.06
2019-04-26T01:51:15.443Z,100379.30
2019-04-26T01:53:47.428Z,100354.70
2019-04-26T01:56:18.064Z,100350.06
2019-04-26T01:58:50.436Z,100353.39
2019-04-26T02:01:23.845Z,100354.38
2019-04-26T02:03:52.923Z,100364.73
2019-04-26T02:06:29.164Z,100370.15
2019-04-26T02:08:52.237Z,100368.47
2019-04-26T02:11:21.033Z,100370.67
2019-04-26T02:13:50.032Z,100363.59
2019-04-26T02:16:20.217Z,100346.61
2019-04-26T02:18:48.861Z,100348.05
2019-04-26T02:21:22.021Z,100360.38
2019-04-26T02:24:05.266Z,100353.00
2019-04-26T02:26:38.623Z,100346.75
2019-04-26T02:29:26.651Z,100334.81
2019-04-26T02:32:00.170Z,100323.82
2019-04-26T02:34:31.886Z,100325.81
2019-04-26T02:37:04.398Z,100331.23
2019-04-26T02:39:37.676Z,100348.02
2019-04-26T02:42:12.467Z,100356.23
2019-04-26T02:44:45.683Z,100353.13
2019-04-26T02:47:32.569Z,100341.20
2019-04-26T02:50:09.104Z,100335.14
2019-04-26T02:52:49.967Z,100354.30
2019-04-26T02:55:55.208Z,100353.22
2019-04-26T02:58:28.293Z,100334.44
2019-04-26T03:01:00.210Z,100313.38
2019-04-26T03:03:31.703Z,100329.30
2019-04-26T03:06:02.214Z,100339.11
2019-04-26T03:08:35.276Z,100340.30
2019-04-26T03:11:06.926Z,100338.32
2019-04-26T03:13:43.690Z,100342.23
2019-04-26T03:16:17.167Z,100342.50
2019-04-26T03:18:59.220Z,100337.56
2019-04-26T03:21:55.970Z,100332.73
2019-04-26T03:24:43.023Z,100331.87
2019-04-26T03:27:17.167Z,100329.80
2019-04-26T03:30:19.244Z,100330.89
2019-04-26T03:35:36.997Z,100340.08
2019-04-26T03:38:10.524Z,100338.53
2019-04-26T03:40:55.625Z,100343.64
2019-04-26T03:43:27.239Z,100342.11
2019-04-26T03:46:21.442Z,100344.70
2019-04-26T03:48:55.771Z,100337.91
2019-04-26T03:51:50.903Z,100330.29
2019-04-26T03:54:25.509Z,100319.44
2019-04-26T03:57:18.449Z,100320.44
2019-04-26T03:59:51.739Z,100317.11
2019-04-26T04:02:36.637Z,100322.22
2019-04-26T04:05:17.977Z,100324.11
2019-04-26T04:07:51.461Z,100324.81
2019-04-26T04:10:24.969Z,100314.52
2019-04-26T04:13:02.605Z,100306.58
2019-04-26T04:15:38.588Z,100303.98
2019-04-26T04:18:12.164Z,100313.53
2019-04-26T04:21:07.543Z,100321.17
2019-04-26T04:23:39.772Z,100311.96
2019-04-26T04:26:11.312Z,100311.78
2019-04-26T04:28:57.742Z,100314.14
2019-04-26T04:31:29.317Z,100299.47
2019-04-26T04:34:20.953Z,100293.38
2019-04-26T04:36:53.643Z,100300.80
2019-04-26T04:39:28.479Z,100305.18
2019-04-26T04:42:21.038Z,100302.90
2019-04-26T04:45:31.233Z,100301.46
2019-04-26T04:48:16.359Z,100299.88
2019-04-26T04:51:11.794Z,100300.70
2019-04-26T04:53:47.448Z,100304.06
2019-04-26T04:56:20.211Z,100314.38
2019-04-26T04:58:57.814Z,100321.34
2019-04-26T05:01:50.821Z,100321.77
2019-04-26T05:04:41.159Z,100218.78
2019-04-26T05:07:34.198Z,100320.32
2019-04-26T05:10:14.713Z,100329.00
2019-04-26T05:13:02.944Z,100333.89
2019-04-26T05:16:09.293Z,100336.45
2019-04-26T05:19:03.645Z,100336.61
2019-04-26T05:21:47.267Z,100329.48
2019-04-26T05:24:18.975Z,100331.33
2019-04-26T05:27:06.330Z,100331.59
2019-04-26T05:29:56.174Z,100324.34
2019-04-26T05:32:54.654Z,100324.53
2019-04-26T05:35:31.064Z,100323.61
2019-04-26T05:38:02.647Z,100333.13
2019-04-26T05:40:53.886Z,100327.56
2019-04-26T05:43:51.824Z,100329.88
2019-04-26T05:46:30.522Z,100332.45
2019-04-26T05:49:09.458Z,100329.30
2019-04-26T05:51:55.694Z,100331.63
2019-04-26T05:54:47.188Z,100327.47
2019-04-26T05:57:32.874Z,100328.36
2019-04-26T06:00:41.539Z,100338.56
2019-04-26T06:03:37.465Z,100339.95
2019-04-26T06:06:28.846Z,100339.70
2019-04-26T06:09:16.990Z,100349.06
2019-04-26T06:12:01.738Z,100356.78
2019-04-26T06:14:46.962Z,100359.67
2019-04-26T06:17:18.177Z,100365.59
2019-04-26T06:20:08.092Z,100354.63
2019-04-26T06:23:00.679Z,100353.06
2019-04-26T06:25:48.798Z,100346.41
2019-04-26T06:28:46.980Z,100353.92
2019-04-26T06:31:31.080Z,100350.53
2019-04-26T06:34:28.938Z,100351.75
2019-04-26T06:37:07.896Z,100348.75
2019-04-26T06:40:02.326Z,100358.27
2019-04-26T06:42:52.287Z,100359.65
2019-04-26T07:02:34.594Z,100366.35
2019-04-26T07:05:16.546Z,100383.97
2019-04-26T07:08:00.260Z,100392.74
2019-04-26T07:10:59.120Z,100392.74
2019-04-26T07:13:50.568Z,100407.88
2019-04-26T07:16:40.398Z,100405.75
2019-04-26T07:19:20.402Z,100399.91
2019-04-26T07:22:35.316Z,100398.34
2019-04-26T07:25:23.376Z,100397.66
2019-04-26T07:28:06.043Z,100403.40
2019-04-26T07:30:37.367Z,100408.95
2019-04-26T07:33:16.338Z,100417.59
2019-04-26T07:35:50.702Z,100413.66
2019-04-26T07:39:09.038Z,100413.23
2019-04-26T07:42:01.705Z,100408.51
2019-04-26T07:44:41.744Z,100417.25
2019-04-26T07:47:52.130Z,100413.95
2019-04-26T07:50:49.223Z,100433.89
2019-04-26T07:53:38.613Z,100438.51
2019-04-26T07:56:19.145Z,100442.26
2019-04-26T07:59:08.780Z,100442.80
2019-04-26T08:02:03.753Z,100436.66
2019-04-26T08:04:39.333Z,100436.97
2019-04-26T08:07:11.017Z,100444.33
2019-04-26T08:09:41.976Z,100449.83
2019-04-26T08:12:14.175Z,100444.03
2019-04-26T08:14:53.585Z,100453.56
2019-04-26T08:17:32.708Z,100445.41
2019-04-26T08:20:28.160Z,100449.86
2019-04-26T08:23:02.611Z,100456.55
2019-04-26T08:25:33.824Z,100458.17
2019-04-26T08:28:05.611Z,100461.53
2019-04-26T08:30:40.614Z,100454.20
2019-04-26T08:33:13.170Z,100451.02
2019-04-26T08:35:48.373Z,100454.72
2019-04-26T08:38:21.934Z,100453.69
2019-04-26T08:40:46.177Z,100458.53
2019-04-26T08:43:32.191Z,100462.25
2019-04-26T08:46:23.732Z,100452.98
2019-04-26T08:49:06.502Z,100456.14
2019-04-26T08:51:37.996Z,100463.56
2019-04-26T08:54:10.271Z,100459.55
2019-04-26T08:56:50.667Z,100450.05
2019-04-26T08:59:23.940Z,100451.31
2019-04-26T09:02:12.969Z,100452.14
2019-04-26T09:05:02.518Z,100450.75
2019-04-26T09:07:36.482Z,100455.63
2019-04-26T09:10:11.207Z,100464.99
2019-04-26T09:12:44.145Z,100458.66
2019-04-26T09:15:14.350Z,100471.48
2019-04-26T09:17:43.040Z,100477.47
2019-04-26T09:20:12.007Z,100471.63
2019-04-26T09:23:03.913Z,100481.53
2019-04-26T09:25:34.520Z,100490.46
2019-04-26T09:28:13.813Z,100495.78
2019-04-26T09:30:47.660Z,100499.42
2019-04-26T09:33:18.919Z,100507.03
2019-04-26T09:35:47.701Z,100520.39
2019-04-26T09:38:19.652Z,100524.70
2019-04-26T09:40:48.460Z,100519.67
2019-04-26T09:43:25.001Z,100522.64
2019-04-26T09:46:04.581Z,100519.20
2019-04-26T09:48:37.695Z,100517.26
2019-04-26T09:51:08.162Z,100526.80
2019-04-26T09:53:39.543Z,100531.45
2019-04-26T09:56:07.314Z,100532.94
2019-04-26T09:58:36.007Z,100544.99
2019-04-26T10:01:06.255Z,100554.81
2019-04-26T10:03:35.182Z,100559.86
2019-04-26T10:06:08.059Z,100574.50
2019-04-26T10:08:36.066Z,100577.32
2019-04-26T10:11:09.189Z,100576.67
2019-04-26T10:13:37.751Z,100586.62
2019-04-26T10:16:13.882Z,100580.67
2019-04-26T10:18:44.247Z,100576.66
2019-04-26T10:21:12.926Z,100572.73
2019-04-26T10:23:41.607Z,100582.00
2019-04-26T10:26:11.819Z,100569.63
2019-04-26T10:28:40.590Z,100572.14
2019-04-26T10:31:13.427Z,100588.50
2019-04-26T10:33:42.550Z,100584.70
2019-04-26T10:36:11.325Z,100591.02
2019-04-26T10:38:41.638Z,100594.50
2019-04-26T10:41:10.988Z,100593.66
2019-04-26T10:43:43.921Z,100599.47
2019-04-26T10:46:12.814Z,100604.66
2019-04-26T10:48:41.549Z,100600.47
2019-04-26T10:51:10.711Z,100597.84
2019-04-26T10:53:45.876Z,100602.91
2019-04-26T10:56:26.486Z,100608.81
2019-04-26T10:59:14.973Z,100612.53
2019-04-26T11:01:46.791Z,100613.11
2019-04-26T11:04:15.738Z,100618.45
2019-04-26T11:06:44.464Z,100624.25
2019-04-26T11:09:13.250Z,100623.95
2019-04-26T11:11:41.929Z,100623.09
2019-04-26T11:14:12.165Z,100629.14
2019-04-26T11:16:41.251Z,100624.66
2019-04-26T11:19:13.694Z,100630.02
2019-04-26T11:21:42.418Z,100637.52
2019-04-26T11:24:15.242Z,100641.84
2019-04-26T11:26:44.325Z,100646.89
2019-04-26T11:29:13.025Z,100650.33
2019-04-26T11:31:41.724Z,100639.57
2019-04-26T11:34:10.464Z,100638.86
2019-04-26T11:36:41.827Z,100634.07
2019-04-26T11:39:11.609Z,100637.67
2019-04-26T11:41:42.744Z,100632.67
2019-04-26T11:44:11.426Z,100631.82
2019-04-26T11:46:45.088Z,100627.14
2019-04-26T11:49:11.937Z,100621.51
2019-04-26T11:51:40.743Z,100612.06
2019-04-26T11:54:09.484Z,100626.83
2019-04-26T11:56:38.869Z,100617.67
2019-04-26T11:59:09.575Z,100625.61
2019-04-26T12:01:40.421Z,100622.63
2019-04-26T12:04:25.647Z,100630.47
2019-04-26T12:07:03.817Z,100622.81
2019-04-26T12:09:40.131Z,100618.58
2019-04-26T12:12:12.555Z,100608.84
2019-04-26T12:14:39.336Z,100601.22
2019-04-26T12:17:08.153Z,100596.38
2019-04-26T12:19:37.211Z,100596.63
2019-04-26T12:22:08.284Z,100596.55
2019-04-26T12:24:38.537Z,100599.56
2019-04-26T12:27:09.999Z,100595.02
2019-04-26T12:29:37.705Z,100606.16
2019-04-26T12:32:06.463Z,100628.34
2019-04-26T12:34:35.176Z,100633.78
2019-04-26T12:37:03.891Z,100627.16
2019-04-26T12:39:36.764Z,100636.68
2019-04-26T12:42:03.781Z,100627.81
2019-04-26T12:44:36.478Z,100621.89
2019-04-26T12:47:16.709Z,100619.69
2019-04-26T12:49:45.401Z,100618.55
2019-04-26T12:52:17.513Z,100621.77
2019-04-26T12:54:44.679Z,100617.79
2019-04-26T12:57:16.209Z,100629.29
2019-04-26T12:59:44.660Z,100641.38
2019-04-26T13:02:16.592Z,100645.05
2019-04-26T13:04:44.461Z,100648.72
2019-04-26T13:07:23.453Z,100645.84
2019-04-26T13:09:47.703Z,100653.87
2019-04-26T13:12:19.475Z,100663.27
2019-04-26T13:14:58.655Z,100655.73
2019-04-26T13:17:35.775Z,100648.97
2019-04-26T13:20:01.383Z,100657.98
2019-04-26T13:22:32.076Z,100658.14
2019-04-26T13:25:00.500Z,100658.13
2019-04-26T13:27:29.178Z,100649.97
2019-04-26T13:30:02.440Z,100654.88
2019-04-26T13:32:28.443Z,100650.04
2019-04-26T13:34:57.114Z,100649.98
2019-04-26T13:37:25.901Z,100654.25
2019-04-26T13:39:55.166Z,100641.23
2019-04-26T13:42:25.619Z,100644.97
2019-04-26T13:45:01.858Z,100646.51
2019-04-26T13:47:38.345Z,100651.48
2019-04-26T13:50:12.264Z,100657.70
2019-04-26T13:52:41.077Z,100660.89
2019-04-26T13:55:10.062Z,100661.02
2019-04-26T13:57:40.313Z,100668.61
2019-04-26T14:00:11.708Z,100663.35
2019-04-26T14:02:40.503Z,100671.18
2019-04-26T14:05:15.341Z,100665.52
2019-04-26T14:07:42.593Z,100662.95
2019-04-26T14:10:11.452Z,100664.77
2019-04-26T14:12:40.242Z,100666.12
2019-04-26T14:15:10.221Z,100666.41
2019-04-26T14:17:40.831Z,100680.69
2019-04-26T14:20:09.759Z,100681.13
2019-04-26T14:22:46.237Z,100687.67
2019-04-26T14:25:16.643Z,100677.34
2019-04-26T14:27:49.909Z,100673.34
2019-04-26T14:30:19.059Z,100684.93
2019-04-26T14:32:49.382Z,100680.78
2019-04-26T14:35:19.644Z,100683.01
2019-04-26T14:37:49.997Z,100690.63
2019-04-26T14:40:18.835Z,100682.90
2019-04-26T14:42:48.834Z,100682.23
2019-04-26T14:45:23.723Z,100685.16
2019-04-26T14:47:48.418Z,100679.97
2019-04-26T14:50:17.667Z,100687.20
2019-04-26T14:52:47.946Z,100684.89
2019-04-26T14:55:21.082Z,100673.73
2019-04-26T14:57:51.363Z,100676.20
2019-04-26T15:00:21.142Z,100673.98
2019-04-26T15:03:04.007Z,100671.42
2019-04-26T15:05:54.052Z,100677.80
2019-04-26T15:08:22.760Z,100687.02
2019-04-26T15:11:00.995Z,100689.79
2019-04-26T15:13:23.741Z,100689.80
2019-04-26T15:15:52.768Z,100691.02
2019-04-26T15:18:22.920Z,100697.33
2019-04-26T15:20:53.077Z,100703.72
2019-04-26T15:23:23.883Z,100710.50
2019-04-26T15:25:52.897Z,100708.91
2019-04-26T15:28:22.157Z,100716.92
2019-04-26T15:30:52.754Z,100712.47
2019-04-26T15:33:22.331Z,100722.99
2019-04-26T15:35:52.153Z,100737.30
2019-04-26T15:38:21.714Z,100739.29
2019-04-26T15:41:11.054Z,100739.14
2019-04-26T15:43:46.750Z,100756.75
2019-04-26T15:46:23.299Z,100770.55
2019-04-26T15:48:59.817Z,100778.86
2019-04-26T15:51:36.265Z,100785.41
2019-04-26T15:54:04.946Z,100780.63
2019-04-26T15:56:33.610Z,100769.36
2019-04-26T15:59:02.609Z,100762.55
2019-04-26T16:01:32.522Z,100764.37
2019-04-26T16:04:05.750Z,100755.59
2019-04-26T16:06:32.311Z,100760.59
2019-04-26T16:09:02.669Z,100770.92
2019-04-26T16:11:31.316Z,100770.82
2019-04-26T16:14:02.305Z,100758.08
2019-04-26T16:16:34.171Z,100763.45
2019-04-26T16:19:02.998Z,100771.66
2019-04-26T16:21:32.332Z,100797.49
2019-04-26T16:24:02.756Z,100800.31
2019-04-26T16:26:32.920Z,100810.19
2019-04-26T16:29:03.475Z,100816.90
2019-04-26T16:34:28.692Z,100811.14
2019-04-26T16:36:58.949Z,100807.67
2019-04-26T16:39:32.362Z,100812.83
2019-04-26T16:42:04.393Z,100810.02
2019-04-26T16:44:31.401Z,100809.78
2019-04-26T16:47:05.952Z,100817.97
2019-04-26T16:52:07.028Z,100818.92
2019-04-26T16:54:37.142Z,100813.89
2019-04-26T16:57:11.138Z,100820.69
2019-04-26T16:59:36.340Z,100825.38
2019-04-26T17:02:05.252Z,100833.31
2019-04-26T17:04:36.256Z,100831.15
2019-04-26T17:07:06.305Z,100832.40
2019-04-26T17:09:50.310Z,100819.98
2019-04-26T17:09:54.799Z,100822.66
2019-04-26T17:12:05.910Z,100818.69
2019-04-26T17:14:34.681Z,100828.38
2019-04-26T17:17:07.463Z,100835.98
2019-04-26T17:19:37.441Z,100837.20
2019-04-26T17:22:19.585Z,100846.13
2019-04-26T17:24:50.366Z,100845.94
2019-04-26T17:27:22.751Z,100841.49
2019-04-26T17:29:52.753Z,100842.41
2019-04-26T17:32:23.264Z,100826.40
2019-04-26T17:34:54.433Z,100828.80
2019-04-26T17:37:26.307Z,100830.20
2019-04-26T17:39:55.377Z,100843.94
2019-04-26T17:42:29.254Z,100837.58
2019-04-26T17:44:57.557Z,100839.27
2019-04-26T17:47:24.494Z,100844.61
2019-04-26T17:49:53.229Z,100836.96
2019-04-26T17:52:21.942Z,100827.58
2019-04-26T17:54:52.033Z,100827.55
2019-04-26T17:57:31.972Z,100824.11
2019-04-26T17:59:51.735Z,100827.76
2019-04-26T18:02:40.726Z,100812.44
2019-04-26T18:05:00.464Z,100820.19
2019-04-26T18:07:40.246Z,100840.58
2019-04-26T18:09:57.099Z,100847.63
2019-04-26T18:12:23.735Z,100854.15
2019-04-26T18:14:52.436Z,100859.27
2019-04-26T18:17:23.139Z,100859.60
2019-04-26T18:19:54.879Z,100865.25
2019-04-26T18:22:37.472Z,100866.62
2019-04-26T18:25:11.117Z,100866.12
2019-04-26T18:27:38.708Z,100867.52
2019-04-26T18:30:11.754Z,100871.80
2019-04-26T18:32:42.935Z,100873.01
2019-04-26T18:35:15.303Z,100855.23
2019-04-26T18:37:40.378Z,100859.51
2019-04-26T18:40:09.151Z,100862.42
2019-04-26T18:42:41.912Z,100867.54
2019-04-26T18:45:08.666Z,100883.66
2019-04-26T18:47:39.028Z,100879.39
2019-04-26T18:50:08.718Z,100876.50
2019-04-26T18:52:39.109Z,100831.78
2019-04-26T18:55:21.503Z,100867.77
2019-04-26T18:57:55.222Z,100871.89
2019-04-26T19:00:26.484Z,100866.27
2019-04-26T19:02:55.425Z,100868.67
2019-04-26T19:05:29.567Z,100865.44
2019-04-26T19:07:54.367Z,100866.31
2019-04-26T19:10:29.481Z,100861.54
2019-04-26T19:13:08.672Z,100868.22
2019-04-26T19:15:51.569Z,100863.77
2019-04-26T19:18:22.132Z,100858.80
2019-04-26T19:23:42.943Z,100871.98
2019-04-26T19:26:13.799Z,100888.21
2019-04-26T19:28:44.380Z,100893.70
2019-04-26T19:31:12.865Z,100884.83
2019-04-26T19:33:42.785Z,100875.27
2019-04-26T19:36:13.601Z,100879.53
2019-04-26T19:38:45.245Z,100890.98
2019-04-26T19:42:13.069Z,100901.76
2019-04-26T19:44:43.905Z,100905.86
2019-04-26T19:47:23.239Z,100917.28
2019-04-26T19:49:56.637Z,100923.43
2019-04-26T19:52:28.834Z,100929.59
2019-04-26T19:54:59.167Z,100926.50
2019-04-26T19:57:42.640Z,100933.00
2019-04-26T20:00:11.802Z,100934.37
2019-04-26T20:02:41.982Z,100922.75
2019-04-26T20:05:11.902Z,100915.23
2019-04-26T20:07:43.337Z,100906.52
2019-04-26T20:10:12.875Z,100909.93
2019-04-26T20:12:41.703Z,100906.19
2019-04-26T20:15:25.821Z,100914.22
2019-04-26T20:17:52.496Z,100923.43
2019-04-26T20:20:23.236Z,100921.22
2019-04-26T20:22:51.482Z,100917.12
2019-04-26T20:25:22.239Z,100928.22
2019-04-26T20:27:53.731Z,100933.84
2019-04-26T20:30:35.203Z,100934.88
2019-04-26T20:33:03.943Z,100931.30
2019-04-26T20:35:32.691Z,100926.16
2019-04-26T20:38:07.199Z,100924.63
2019-04-26T20:40:35.940Z,100933.00
2019-04-26T20:43:06.879Z,100937.29
2019-04-26T20:45:41.481Z,100939.67
2019-04-26T20:48:05.885Z,100945.66
2019-04-26T20:50:36.865Z,100937.63
2019-04-26T20:53:05.585Z,100944.10
2019-04-26T20:55:34.701Z,100933.86
2019-04-26T20:58:05.709Z,100934.53
2019-04-26T21:00:36.440Z,100949.17
2019-04-26T21:03:06.351Z,100941.81
2019-04-26T21:05:46.052Z,100946.59
2019-04-26T21:08:12.875Z,100968.61
2019-04-26T21:10:41.854Z,100976.80
2019-04-26T21:13:12.219Z,100977.32
2019-04-26T21:15:53.524Z,100991.46
2019-04-26T21:18:12.426Z,101004.79
2019-04-26T21:20:42.486Z,101020.33
2019-04-26T21:23:13.331Z,101018.62
2019-04-26T21:25:43.599Z,101013.83
2019-04-26T21:28:17.101Z,101008.20
2019-04-26T21:31:03.434Z,101005.95
2019-04-26T21:33:46.317Z,101000.33
2019-04-26T21:36:19.809Z,100989.41
2019-04-26T21:38:50.161Z,100980.73
2019-04-26T21:41:21.179Z,100970.48
2019-04-26T21:43:50.405Z,100960.72
2019-04-26T21:46:20.234Z,100954.72
2019-04-26T21:48:50.562Z,100950.27
2019-04-26T21:51:19.352Z,100950.95
2019-04-26T21:53:48.085Z,100955.23
2019-04-26T21:56:16.854Z,100960.16
2019-04-26T21:58:46.136Z,100952.30
2019-04-26T22:01:19.311Z,100947.52
2019-04-26T22:03:54.313Z,100937.27
2019-04-26T22:06:19.793Z,100916.78
2019-04-26T22:08:58.705Z,100901.75
2019-04-26T22:11:25.529Z,100905.11
2019-04-26T22:14:05.050Z,100917.88
2019-04-26T22:16:53.036Z,100925.53
2019-04-26T22:19:27.892Z,100943.73
2019-04-26T22:22:15.114Z,100951.08
2019-04-26T22:24:46.153Z,100958.05
2019-04-26T22:27:17.420Z,100967.14
2019-04-26T22:29:47.655Z,100954.56
2019-04-26T22:32:19.349Z,100950.66
2019-04-26T22:34:48.072Z,100958.53
2019-04-26T22:37:29.661Z,100968.93
2019-04-26T22:39:49.978Z,100892.66
2019-04-26T22:42:19.045Z,100966.20
2019-04-26T22:45:03.263Z,100946.73
2019-04-26T22:47:40.673Z,100932.24
2019-04-26T22:50:04.531Z,100923.37
2019-04-26T22:52:33.497Z,100924.57
2019-04-26T22:55:04.818Z,100927.82
2019-04-26T22:57:36.389Z,100940.10
2019-04-26T23:00:07.017Z,100950.67
2019-04-26T23:02:38.893Z,100938.53
2019-04-26T23:05:07.941Z,100938.69
2019-04-26T23:07:36.792Z,100941.27
2019-04-26T23:10:07.978Z,100947.54
2019-04-26T23:12:41.170Z,100961.78
2019-04-26T23:15:31.040Z,100962.73
2019-04-26T23:21:11.954Z,100946.40
2019-04-26T23:23:41.031Z,100946.26
2019-04-26T23:26:09.989Z,100946.13
2019-04-26T23:28:38.722Z,100944.53
2019-04-26T23:31:09.117Z,100932.95
2019-04-26T23:33:37.929Z,100922.25
2019-04-26T23:36:06.644Z,100921.72
2019-04-26T23:38:37.366Z,100913.54
2019-04-26T23:41:07.371Z,100903.16
2019-04-26T23:43:36.204Z,100900.59
2019-04-26T23:46:07.559Z,100907.72
2019-04-26T23:48:36.579Z,100910.97
2019-04-26T23:51:08.369Z,100907.40
2019-04-26T23:53:35.975Z,100908.76
2019-04-26T23:56:04.824Z,100914.59
2019-04-26T23:58:33.569Z,100919.91
